createdAt,value
2022-08-07T00:01:12.584Z,14.46
2022-08-07T00:06:29.522Z,14.40
2022-08-07T00:11:35.487Z,14.35
2022-08-07T00:16:49.805Z,14.22
2022-08-07T00:21:56.729Z,14.33
2022-08-07T00:27:07.370Z,14.24
2022-08-07T00:32:10.782Z,13.83
2022-08-07T00:37:16.422Z,13.73
2022-08-07T00:42:18.071Z,13.77
2022-08-07T00:48:08.218Z,13.88
2022-08-07T00:52:48.700Z,13.91
2022-08-07T00:57:55.629Z,13.10
2022-08-07T01:02:57.681Z,12.70
2022-08-07T01:07:59.613Z,12.78
2022-08-07T01:13:01.914Z,13.04
2022-08-07T01:18:05.612Z,13.40
2022-08-07T01:23:13.637Z,13.60
2022-08-07T01:28:16.923Z,13.57
2022-08-07T01:33:21.534Z,13.49
2022-08-07T01:38:29.199Z,13.53
2022-08-07T01:43:38.388Z,13.62
2022-08-07T01:48:46.638Z,13.30
2022-08-07T01:54:08.861Z,13.28
2022-08-07T01:59:24.229Z,13.43
2022-08-07T02:04:57.400Z,13.50
2022-08-07T02:10:10.272Z,12.60
2022-08-07T02:15:25.449Z,12.33
2022-08-07T02:20:31.930Z,12.62
2022-08-07T02:26:30.388Z,12.54
2022-08-07T02:31:10.124Z,12.35
2022-08-07T02:36:30.487Z,12.07
2022-08-07T02:41:50.607Z,11.83
2022-08-07T02:46:59.198Z,11.93
2022-08-07T02:52:08.805Z,11.91
2022-08-07T02:57:14.286Z,11.76
2022-08-07T03:02:17.755Z,11.76
2022-08-07T03:07:21.486Z,11.86
2022-08-07T03:12:45.444Z,11.91
2022-08-07T03:17:53.459Z,11.95
2022-08-07T03:22:59.417Z,11.93
2022-08-07T03:28:36.852Z,11.83
2022-08-07T03:33:24.978Z,11.74
2022-08-07T03:38:36.283Z,11.76
2022-08-07T03:43:44.019Z,11.85
2022-08-07T03:49:02.712Z,11.96
2022-08-07T03:54:35.182Z,11.94
2022-08-07T03:59:32.014Z,11.77
2022-08-07T04:04:34.907Z,11.78
2022-08-07T04:09:45.057Z,11.77
2022-08-07T04:14:56.284Z,11.84
2022-08-07T04:19:58.770Z,11.86
2022-08-07T04:25:03.071Z,11.91
2022-08-07T04:30:21.558Z,11.78
2022-08-07T04:35:50.375Z,11.50
2022-08-07T04:40:56.722Z,11.50
2022-08-07T04:46:20.222Z,11.69
2022-08-07T04:51:49.325Z,11.83
2022-08-07T04:58:14.161Z,11.82
2022-08-07T05:02:23.276Z,11.89
2022-08-07T05:07:36.862Z,12.08
2022-08-07T05:13:01.445Z,11.95
2022-08-07T05:18:32.053Z,12.17
2022-08-07T05:23:47.600Z,13.33
2022-08-07T05:28:53.811Z,14.12
2022-08-07T05:34:05.509Z,14.17
2022-08-07T05:40:16.723Z,14.71
2022-08-07T05:44:46.632Z,15.49
2022-08-07T05:50:03.430Z,16.27
2022-08-07T05:55:10.676Z,16.12
2022-08-07T06:00:17.863Z,16.36
2022-08-07T06:05:31.163Z,16.54
2022-08-07T06:10:39.307Z,16.39
2022-08-07T06:15:49.950Z,17.29
2022-08-07T06:22:15.283Z,18.30
2022-08-07T06:26:21.621Z,18.14
2022-08-07T06:31:46.870Z,18.64
2022-08-07T06:36:52.546Z,17.55
2022-08-07T06:42:07.546Z,18.06
2022-08-07T06:47:48.395Z,19.23
2022-08-07T06:52:56.374Z,20.65
2022-08-07T06:58:10.748Z,20.34
2022-08-07T07:03:49.265Z,21.12
2022-08-07T07:08:53.864Z,21.47
2022-08-07T07:14:01.515Z,21.32
2022-08-07T07:19:40.960Z,22.69
2022-08-07T07:24:29.275Z,23.16
2022-08-07T07:30:09.456Z,22.98
2022-08-07T07:35:04.086Z,23.81
2022-08-07T07:40:14.623Z,23.98
2022-08-07T07:45:19.077Z,24.95
2022-08-07T07:50:34.518Z,24.65
2022-08-07T07:55:45.671Z,23.90
2022-08-07T08:00:58.553Z,24.43
2022-08-07T08:06:01.523Z,25.64
2022-08-07T08:11:08.986Z,24.70
2022-08-07T08:16:19.668Z,25.47
2022-08-07T08:22:02.875Z,25.51
2022-08-07T08:26:53.211Z,26.49
2022-08-07T08:32:04.809Z,27.22
2022-08-07T08:37:59.312Z,26.38
2022-08-07T08:42:51.578Z,27.45
2022-08-07T08:48:13.912Z,26.03
2022-08-07T08:53:47.134Z,28.16
2022-08-07T08:59:12.686Z,27.72
2022-08-07T09:04:25.985Z,28.95
2022-08-07T09:10:03.417Z,28.99
2022-08-07T09:16:23.930Z,28.20
2022-08-07T09:21:34.164Z,27.62
2022-08-07T09:27:17.411Z,28.95
2022-08-07T09:32:37.680Z,29.69
2022-08-07T09:37:53.677Z,29.70
2022-08-07T09:43:18.047Z,28.41
2022-08-07T09:48:29.739Z,29.84
2022-08-07T09:53:40.816Z,30.07
2022-08-07T09:59:44.566Z,30.70
2022-08-07T10:04:53.362Z,29.54
2022-08-07T10:10:28.238Z,29.24
2022-08-07T10:15:37.786Z,30.22
2022-08-07T10:21:05.054Z,30.96
2022-08-07T10:26:36.642Z,31.70
2022-08-07T10:31:49.589Z,32.34
2022-08-07T10:37:26.584Z,29.87
2022-08-07T10:43:21.281Z,28.49
2022-08-07T10:48:59.981Z,30.16
2022-08-07T10:54:25.323Z,31.12
2022-08-07T10:59:52.940Z,32.38
2022-08-07T11:05:10.644Z,30.83
2022-08-07T11:10:41.627Z,31.89
2022-08-07T11:15:54.363Z,32.91
2022-08-07T11:21:19.579Z,31.90
2022-08-07T11:26:43.267Z,33.02
2022-08-07T11:32:01.047Z,31.20
2022-08-07T11:37:16.937Z,29.68
2022-08-07T11:42:29.762Z,31.86
2022-08-07T11:47:59.494Z,31.14
2022-08-07T11:53:33.764Z,31.57
2022-08-07T11:58:53.876Z,32.17
2022-08-07T12:04:24.873Z,33.64
2022-08-07T12:09:53.734Z,30.59
2022-08-07T12:15:03.328Z,32.62
2022-08-07T12:20:18.555Z,32.09
2022-08-07T12:26:06.252Z,32.95
2022-08-07T12:31:22.407Z,31.62
2022-08-07T12:36:33.180Z,30.62
2022-08-07T12:41:42.864Z,32.81
2022-08-07T12:47:30.509Z,33.54
2022-08-07T12:52:35.161Z,33.58
2022-08-07T12:58:02.135Z,32.69
2022-08-07T13:03:01.048Z,33.03
2022-08-07T13:08:42.910Z,33.58
2022-08-07T13:13:53.864Z,33.17
2022-08-07T13:19:34.835Z,32.82
2022-08-07T13:24:54.096Z,33.34
2022-08-07T13:30:07.645Z,31.42
2022-08-07T13:35:21.717Z,32.82
2022-08-07T13:40:35.198Z,31.85
2022-08-07T13:46:12.453Z,32.93
2022-08-07T13:51:20.490Z,32.91
2022-08-07T13:56:35.435Z,33.44
2022-08-07T14:02:04.069Z,33.82
2022-08-07T14:07:09.260Z,33.40
2022-08-07T14:12:28.107Z,30.96
2022-08-07T14:18:23.540Z,33.73
2022-08-07T14:23:58.810Z,34.17
2022-08-07T14:28:57.373Z,33.78
2022-08-07T14:34:02.903Z,33.84
2022-08-07T14:39:12.560Z,32.82
2022-08-07T14:44:33.607Z,31.64
2022-08-07T14:49:58.328Z,32.05
2022-08-07T14:55:01.712Z,33.72
2022-08-07T15:00:06.642Z,33.63
2022-08-07T15:05:20.047Z,32.86
2022-08-07T15:10:29.654Z,33.27
2022-08-07T15:15:52.763Z,33.40
2022-08-07T15:21:03.772Z,32.72
2022-08-07T15:26:11.638Z,33.53
2022-08-07T15:32:01.059Z,33.32
2022-08-07T15:37:02.738Z,33.58
2022-08-07T15:48:00.296Z,32.83
2022-08-07T15:52:51.866Z,33.40
2022-08-07T15:58:00.273Z,32.02
2022-08-07T16:03:06.546Z,32.85
2022-08-07T16:08:32.663Z,33.00
2022-08-07T16:13:58.471Z,32.46
2022-08-07T16:19:12.962Z,32.47
2022-08-07T16:24:34.394Z,30.37
2022-08-07T16:30:29.579Z,31.61
2022-08-07T16:35:52.052Z,32.25
2022-08-07T16:41:22.712Z,31.84
2022-08-07T16:47:16.625Z,31.33
2022-08-07T16:52:55.392Z,31.60
2022-08-07T16:58:09.616Z,31.69
2022-08-07T17:03:58.275Z,31.03
2022-08-07T17:09:09.277Z,30.46
2022-08-07T17:14:23.755Z,30.29
2022-08-07T17:20:02.544Z,29.38
2022-08-07T17:25:19.159Z,29.43
2022-08-07T17:30:26.628Z,29.32
2022-08-07T17:35:59.616Z,28.80
2022-08-07T17:42:02.104Z,28.66
2022-08-07T17:46:52.481Z,28.17
2022-08-07T17:52:10.390Z,28.14
2022-08-07T17:57:56.129Z,28.29
2022-08-07T18:02:57.844Z,27.86
2022-08-07T18:08:16.423Z,27.52
2022-08-07T18:13:40.738Z,27.36
2022-08-07T18:21:03.287Z,26.98
2022-08-07T18:24:34.248Z,26.57
2022-08-07T18:30:07.390Z,26.34
2022-08-07T18:35:16.407Z,26.06
2022-08-07T18:40:50.223Z,25.91
2022-08-07T18:46:25.698Z,25.67
2022-08-07T18:52:35.501Z,25.45
2022-08-07T18:57:30.513Z,25.35
2022-08-07T19:02:51.544Z,25.18
2022-08-07T19:08:07.113Z,24.94
2022-08-07T19:13:23.216Z,24.78
2022-08-07T19:18:36.787Z,24.72
2022-08-07T19:23:57.918Z,24.48
2022-08-07T19:30:55.556Z,24.37
2022-08-07T19:34:32.607Z,24.36
2022-08-07T19:39:40.417Z,24.16
2022-08-07T19:45:08.651Z,23.96
2022-08-07T19:50:44.294Z,23.78
2022-08-07T19:55:56.623Z,23.61
2022-08-07T20:00:57.398Z,23.36
2022-08-07T20:06:02.331Z,23.39
2022-08-07T20:11:12.269Z,23.36
2022-08-07T20:16:35.808Z,23.23
2022-08-07T20:21:48.309Z,23.08
2022-08-07T20:26:54.758Z,22.92
2022-08-07T20:31:58.701Z,22.74
2022-08-07T20:37:04.890Z,22.71
2022-08-07T20:42:11.583Z,22.60
2022-08-07T20:47:17.036Z,22.47
2022-08-07T20:52:50.395Z,22.38
2022-08-07T20:58:02.501Z,22.27
2022-08-07T21:03:07.316Z,22.16
2022-08-07T21:08:12.803Z,22.03
2022-08-07T21:13:19.051Z,21.91
2022-08-07T21:18:33.463Z,21.80
2022-08-07T21:23:56.293Z,21.64
2022-08-07T21:29:06.886Z,21.53
2022-08-07T21:34:32.191Z,21.56
2022-08-07T21:39:51.859Z,21.47
2022-08-07T21:46:04.736Z,21.37
2022-08-07T21:50:34.881Z,21.33
2022-08-07T21:55:45.595Z,21.21
2022-08-07T22:00:53.168Z,21.05
2022-08-07T22:06:03.674Z,20.90
2022-08-07T22:11:06.025Z,20.86
2022-08-07T22:16:43.043Z,20.79
2022-08-07T22:22:02.203Z,20.71
2022-08-07T22:28:08.349Z,20.56
2022-08-07T22:33:12.484Z,20.48
2022-08-07T22:38:47.947Z,20.30
2022-08-07T22:43:54.671Z,20.24
2022-08-07T22:49:13.681Z,20.22
2022-08-07T22:54:36.431Z,20.17
2022-08-07T23:00:08.974Z,20.09
2022-08-07T23:06:08.827Z,19.95
2022-08-07T23:11:12.938Z,19.89
2022-08-07T23:17:04.244Z,19.83
2022-08-07T23:22:39.307Z,19.65
2022-08-07T23:28:20.454Z,19.60
2022-08-07T23:34:34.866Z,19.58
2022-08-07T23:39:08.377Z,19.52
2022-08-07T23:44:16.321Z,19.41
2022-08-07T23:49:50.854Z,19.41
2022-08-07T23:55:53.110Z,19.47
